createdAt,value
2022-10-23T00:00:34.108Z,64.97
2022-10-23T00:03:01.042Z,74.53
2022-10-23T00:05:28.965Z,79.80
2022-10-23T00:07:58.605Z,81.93
2022-10-23T00:10:27.574Z,87.32
2022-10-23T00:12:54.835Z,96.07
2022-10-23T00:15:23.666Z,97.07
2022-10-23T00:17:50.665Z,82.65
2022-10-23T00:20:18.106Z,89.68
2022-10-23T00:22:45.076Z,84.72
2022-10-23T00:25:13.813Z,77.75
2022-10-23T00:27:41.277Z,77.57
2022-10-23T00:30:08.741Z,77.25
2022-10-23T00:32:35.609Z,79.03
2022-10-23T00:35:02.420Z,65.85
2022-10-23T00:37:29.339Z,69.05
2022-10-23T00:39:56.236Z,64.40
2022-10-23T00:42:23.503Z,68.80
2022-10-23T00:44:50.310Z,68.47
2022-10-23T00:47:18.440Z,56.63
2022-10-23T00:49:45.228Z,54.63
2022-10-23T00:52:14.056Z,53.70
2022-10-23T00:54:43.362Z,63.05
2022-10-23T00:57:14.008Z,59.70
2022-10-23T00:59:40.941Z,52.20
2022-10-23T01:02:08.724Z,45.88
2022-10-23T01:04:36.591Z,43.07
2022-10-23T01:07:22.883Z,45.88
2022-10-23T01:10:12.845Z,46.30
2022-10-23T01:12:50.742Z,42.97
2022-10-23T01:15:31.112Z,41.42
2022-10-23T01:18:13.377Z,46.47
2022-10-23T01:20:46.531Z,40.45
2022-10-23T01:23:35.358Z,40.08
2022-10-23T01:26:14.500Z,40.45
2022-10-23T01:28:50.825Z,43.67
2022-10-23T01:31:25.804Z,44.03
2022-10-23T01:33:58.904Z,57.45
2022-10-23T01:36:29.389Z,56.33
2022-10-23T01:39:01.650Z,52.28
2022-10-23T01:41:34.603Z,54.50
2022-10-23T01:44:09.079Z,51.17
2022-10-23T01:46:37.504Z,58.72
2022-10-23T01:49:08.889Z,59.17
2022-10-23T01:51:38.606Z,55.78
2022-10-23T01:54:09.868Z,58.63
2022-10-23T01:56:39.519Z,48.67
2022-10-23T01:59:11.752Z,48.95
2022-10-23T02:01:44.348Z,53.40
2022-10-23T02:04:15.046Z,47.42
2022-10-23T02:06:41.897Z,43.80
2022-10-23T02:09:08.902Z,42.60
2022-10-23T02:11:42.981Z,44.20
2022-10-23T02:14:59.487Z,45.92
2022-10-23T02:18:03.879Z,39.55
2022-10-23T02:20:55.567Z,46.88
2022-10-23T02:23:28.248Z,48.53
2022-10-23T02:26:02.296Z,47.05
2022-10-23T02:28:36.969Z,44.90
2022-10-23T02:31:05.419Z,46.30
2022-10-23T02:33:33.980Z,41.97
2022-10-23T02:36:04.075Z,40.57
2022-10-23T02:38:57.400Z,38.78
2022-10-23T02:41:29.354Z,36.05
2022-10-23T02:44:14.163Z,43.45
2022-10-23T02:46:58.263Z,39.25
2022-10-23T02:49:34.108Z,42.30
2022-10-23T02:52:08.947Z,38.72
2022-10-23T02:54:41.820Z,34.47
2022-10-23T02:57:22.648Z,36.95
2022-10-23T02:59:55.806Z,36.65
2022-10-23T03:02:37.983Z,36.20
2022-10-23T03:05:09.916Z,37.90
2022-10-23T03:07:38.668Z,37.47
2022-10-23T03:10:06.201Z,37.95
2022-10-23T03:12:33.110Z,41.00
2022-10-23T03:14:59.912Z,36.93
2022-10-23T03:17:26.729Z,33.45
2022-10-23T03:19:53.653Z,31.65
2022-10-23T03:22:20.408Z,32.78
2022-10-23T03:24:47.138Z,30.55
2022-10-23T03:27:14.002Z,33.30
2022-10-23T03:29:40.797Z,29.75
2022-10-23T03:32:07.641Z,30.77
2022-10-23T03:34:35.738Z,31.08
2022-10-23T03:37:02.597Z,29.55
2022-10-23T03:39:29.521Z,25.97
2022-10-23T03:41:56.462Z,26.77
2022-10-23T03:44:23.246Z,28.23
2022-10-23T03:46:49.973Z,31.05
2022-10-23T03:49:16.776Z,31.65
2022-10-23T03:51:44.861Z,28.93
2022-10-23T03:54:11.773Z,32.45
2022-10-23T03:56:38.496Z,38.42
2022-10-23T03:59:05.257Z,30.73
2022-10-23T04:01:32.076Z,40.20
2022-10-23T04:03:58.881Z,45.47
2022-10-23T04:06:25.770Z,45.65
2022-10-23T04:08:52.618Z,46.50
2022-10-23T04:11:19.365Z,37.75
2022-10-23T04:13:46.420Z,39.25
2022-10-23T04:16:13.344Z,42.97
2022-10-23T04:18:41.590Z,106.47
2022-10-23T04:21:09.189Z,96.78
2022-10-23T04:23:36.263Z,84.32
2022-10-23T04:26:03.103Z,76.80
2022-10-23T04:28:30.070Z,58.77
2022-10-23T04:30:59.085Z,50.08
2022-10-23T04:33:25.966Z,43.17
2022-10-23T04:35:52.793Z,37.58
2022-10-23T04:38:19.508Z,29.50
2022-10-23T04:40:46.474Z,33.33
2022-10-23T04:43:13.264Z,30.60
2022-10-23T04:45:40.050Z,26.17
2022-10-23T04:48:06.828Z,30.52
2022-10-23T04:50:33.575Z,27.15
2022-10-23T04:53:00.342Z,36.20
2022-10-23T04:55:27.188Z,40.50
2022-10-23T04:57:53.986Z,29.95
2022-10-23T05:00:20.968Z,26.45
2022-10-23T05:02:47.834Z,29.33
2022-10-23T05:05:18.120Z,27.63
2022-10-23T05:07:45.262Z,33.50
2022-10-23T05:10:12.242Z,45.83
2022-10-23T05:12:38.976Z,40.80
2022-10-23T05:15:06.451Z,57.42
2022-10-23T05:17:37.411Z,74.83
2022-10-23T05:20:09.770Z,37.70
2022-10-23T05:22:39.258Z,69.15
2022-10-23T05:25:06.135Z,42.55
2022-10-23T05:27:33.062Z,41.20
2022-10-23T05:30:00.091Z,47.23
2022-10-23T05:32:29.684Z,52.13
2022-10-23T05:34:56.943Z,63.87
2022-10-23T05:37:23.898Z,51.73
2022-10-23T05:39:50.814Z,46.83
2022-10-23T05:42:17.798Z,51.78
2022-10-23T05:44:44.616Z,47.40
2022-10-23T05:47:11.411Z,43.55
2022-10-23T05:49:38.140Z,53.77
2022-10-23T05:52:05.243Z,38.30
2022-10-23T05:54:32.081Z,44.97
2022-10-23T05:56:58.875Z,61.70
2022-10-23T05:59:25.686Z,68.78
2022-10-23T06:01:52.659Z,53.97
2022-10-23T06:04:19.598Z,75.68
2022-10-23T06:06:47.119Z,41.92
2022-10-23T06:09:15.362Z,68.28
2022-10-23T06:11:42.696Z,59.95
2022-10-23T06:14:09.517Z,64.97
2022-10-23T06:16:36.437Z,75.37
2022-10-23T06:19:03.614Z,50.15
2022-10-23T06:21:30.332Z,36.00
2022-10-23T06:23:57.278Z,42.95
2022-10-23T06:26:24.049Z,47.57
2022-10-23T06:28:50.890Z,30.48
2022-10-23T06:31:19.678Z,41.90
2022-10-23T06:33:46.571Z,71.18
2022-10-23T06:36:13.369Z,67.97
2022-10-23T06:38:40.767Z,79.77
2022-10-23T06:41:13.309Z,61.65
2022-10-23T06:43:40.157Z,67.43
2022-10-23T06:46:07.154Z,63.47
2022-10-23T06:48:34.143Z,56.63
2022-10-23T06:51:07.048Z,65.50
2022-10-23T06:53:34.295Z,121.72
2022-10-23T06:56:02.237Z,73.22
2022-10-23T06:58:29.191Z,84.70
2022-10-23T07:00:59.734Z,150.10
2022-10-23T07:03:26.621Z,125.33
2022-10-23T07:05:53.439Z,90.55
2022-10-23T07:08:20.375Z,114.07
2022-10-23T07:10:48.520Z,116.03
2022-10-23T07:13:15.387Z,127.97
2022-10-23T07:15:42.180Z,141.83
2022-10-23T07:18:14.551Z,136.70
2022-10-23T07:20:41.988Z,114.10
2022-10-23T07:23:11.172Z,126.97
2022-10-23T07:25:38.282Z,122.05
2022-10-23T07:28:05.389Z,73.43
2022-10-23T07:30:32.141Z,116.45
2022-10-23T07:32:59.207Z,108.37
2022-10-23T07:35:25.976Z,78.65
2022-10-23T07:37:52.977Z,109.28
2022-10-23T07:40:19.852Z,85.53
2022-10-23T07:42:46.587Z,90.22
2022-10-23T07:45:13.356Z,98.03
2022-10-23T07:47:40.399Z,85.22
2022-10-23T07:50:08.200Z,82.00
2022-10-23T07:52:36.409Z,49.97
2022-10-23T07:55:03.633Z,48.58
2022-10-23T07:57:30.533Z,41.33
2022-10-23T07:59:57.531Z,57.53
2022-10-23T08:02:24.392Z,68.10
2022-10-23T08:04:51.353Z,63.00
2022-10-23T08:07:18.247Z,54.92
2022-10-23T08:09:45.192Z,88.40
2022-10-23T08:12:11.932Z,65.10
2022-10-23T08:14:38.826Z,31.40
2022-10-23T08:17:05.742Z,31.37
2022-10-23T08:19:32.755Z,37.35
2022-10-23T08:21:59.590Z,38.33
2022-10-23T08:24:26.384Z,52.08
2022-10-23T08:26:53.168Z,44.92
2022-10-23T08:29:19.926Z,29.97
2022-10-23T08:31:46.942Z,32.58
2022-10-23T08:34:15.393Z,52.33
2022-10-23T08:36:42.281Z,30.25
2022-10-23T08:39:09.660Z,25.95
2022-10-23T08:41:40.400Z,36.60
2022-10-23T08:44:18.264Z,31.45
2022-10-23T08:46:50.689Z,27.98
2022-10-23T08:49:20.500Z,33.33
2022-10-23T08:51:51.855Z,34.83
2022-10-23T08:54:28.082Z,32.83
2022-10-23T08:57:02.754Z,24.87
2022-10-23T08:59:44.384Z,23.67
2022-10-23T09:02:17.974Z,28.92
2022-10-23T09:04:47.528Z,23.45
2022-10-23T09:07:39.543Z,30.63
2022-10-23T09:10:36.726Z,26.98
2022-10-23T09:13:16.350Z,23.60
2022-10-23T09:15:47.996Z,23.45
2022-10-23T09:18:16.749Z,27.42
2022-10-23T09:20:46.213Z,24.40
2022-10-23T09:23:16.875Z,29.50
2022-10-23T09:25:45.602Z,26.80
2022-10-23T09:28:20.156Z,26.45
2022-10-23T09:30:48.127Z,26.70
2022-10-23T09:33:19.130Z,27.90
2022-10-23T09:35:54.827Z,23.80
2022-10-23T09:38:27.799Z,18.75
2022-10-23T09:40:55.328Z,20.90
2022-10-23T09:43:24.170Z,19.92
2022-10-23T09:46:03.312Z,19.97
2022-10-23T09:48:30.181Z,20.42
2022-10-23T09:51:03.283Z,18.50
2022-10-23T09:53:48.159Z,19.65
2022-10-23T09:56:34.024Z,17.83
2022-10-23T09:59:13.049Z,18.47
2022-10-23T10:02:13.808Z,17.77
2022-10-23T10:04:41.817Z,19.10
2022-10-23T10:07:36.703Z,19.67
2022-10-23T10:10:13.922Z,17.00
2022-10-23T10:13:25.542Z,18.30
2022-10-23T10:15:58.149Z,17.05
2022-10-23T10:18:37.384Z,20.15
2022-10-23T10:21:51.083Z,15.95
2022-10-23T10:24:28.194Z,15.82
2022-10-23T10:27:03.928Z,17.33
2022-10-23T10:29:41.657Z,16.92
2022-10-23T10:32:20.414Z,17.65
2022-10-23T10:35:24.801Z,17.60
2022-10-23T10:37:57.411Z,16.55
2022-10-23T10:40:38.458Z,17.87
2022-10-23T10:43:23.819Z,17.60
2022-10-23T10:46:10.267Z,17.62
2022-10-23T10:48:52.517Z,17.80
2022-10-23T10:52:01.411Z,17.23
2022-10-23T10:55:05.569Z,16.80
2022-10-23T10:57:38.318Z,15.40
2022-10-23T11:00:14.949Z,16.10
2022-10-23T11:03:00.832Z,13.45
2022-10-23T11:05:32.536Z,14.52
2022-10-23T11:08:17.858Z,16.50
2022-10-23T11:10:47.385Z,14.27
2022-10-23T11:13:37.886Z,14.45
2022-10-23T11:16:12.780Z,12.25
2022-10-23T11:18:44.115Z,15.13
2022-10-23T11:21:25.849Z,8.07
2022-10-23T11:24:15.445Z,7.95
2022-10-23T11:27:00.033Z,7.82
2022-10-23T11:29:35.829Z,10.05
2022-10-23T11:32:24.425Z,8.82
2022-10-23T11:35:03.943Z,11.17
2022-10-23T11:37:30.959Z,7.93
2022-10-23T11:40:06.539Z,6.70
2022-10-23T11:42:47.176Z,8.18
2022-10-23T11:45:32.034Z,8.73
2022-10-23T11:48:05.556Z,6.37
2022-10-23T11:50:49.938Z,7.55
2022-10-23T11:53:31.567Z,7.07
2022-10-23T11:56:03.928Z,9.75
2022-10-23T11:58:48.590Z,8.32
2022-10-23T12:01:19.912Z,8.27
2022-10-23T12:03:58.003Z,7.97
2022-10-23T12:06:28.849Z,9.70
2022-10-23T12:09:01.873Z,10.23
2022-10-23T12:11:43.986Z,8.93
2022-10-23T12:14:26.706Z,9.27
2022-10-23T12:16:54.063Z,10.45
2022-10-23T12:19:23.674Z,7.20
2022-10-23T12:21:53.650Z,9.32
2022-10-23T12:24:58.404Z,8.27
2022-10-23T12:27:38.187Z,10.43
2022-10-23T12:31:04.497Z,8.23
2022-10-23T12:33:50.106Z,10.00
2022-10-23T12:36:41.938Z,9.48
2022-10-23T12:39:28.212Z,7.47
2022-10-23T12:41:56.409Z,8.47
2022-10-23T12:44:25.720Z,6.37
2022-10-23T12:46:58.248Z,9.27
2022-10-23T12:49:27.982Z,8.80
2022-10-23T12:52:00.942Z,8.25
2022-10-23T12:54:30.589Z,6.37
2022-10-23T12:56:57.962Z,6.40
2022-10-23T12:59:28.362Z,4.32
2022-10-23T13:01:55.897Z,6.03
2022-10-23T13:04:29.148Z,5.47
2022-10-23T13:06:59.191Z,7.17
2022-10-23T13:09:40.803Z,6.90
2022-10-23T13:12:16.297Z,7.53
2022-10-23T13:14:56.928Z,6.50
2022-10-23T13:17:38.766Z,7.40
2022-10-23T13:20:22.326Z,6.77
2022-10-23T13:23:09.235Z,6.43
2022-10-23T13:25:39.043Z,6.87
2022-10-23T13:28:25.813Z,6.43
2022-10-23T13:31:10.587Z,6.62
2022-10-23T13:33:52.639Z,5.87
2022-10-23T13:36:23.196Z,7.28
2022-10-23T13:39:02.158Z,8.30
2022-10-23T13:41:36.897Z,4.57
2022-10-23T13:44:04.250Z,6.45
2022-10-23T13:46:32.394Z,7.10
2022-10-23T13:48:59.634Z,6.40
2022-10-23T13:51:37.571Z,7.28
2022-10-23T13:54:15.313Z,7.82
2022-10-23T13:56:43.041Z,8.30
2022-10-23T13:59:11.175Z,9.43
2022-10-23T14:01:39.347Z,10.70
2022-10-23T14:04:07.763Z,9.40
2022-10-23T14:06:37.588Z,9.45
2022-10-23T14:09:16.334Z,9.05
2022-10-23T14:11:44.130Z,16.37
2022-10-23T14:14:11.809Z,22.05
2022-10-23T14:16:39.960Z,16.23
2022-10-23T14:19:07.991Z,9.68
2022-10-23T14:21:35.528Z,9.88
2022-10-23T14:24:02.960Z,14.03
2022-10-23T14:26:30.472Z,13.80
2022-10-23T14:29:02.299Z,10.07
2022-10-23T14:31:38.253Z,15.85
2022-10-23T14:34:05.862Z,20.95
2022-10-23T14:36:43.274Z,19.30
2022-10-23T14:39:18.870Z,12.65
2022-10-23T14:41:47.850Z,13.60
2022-10-23T14:44:15.410Z,10.65
2022-10-23T14:46:45.199Z,12.80
2022-10-23T14:49:13.495Z,10.30
2022-10-23T14:51:41.193Z,11.40
2022-10-23T14:54:09.681Z,11.27
2022-10-23T14:56:40.035Z,11.52
2022-10-23T14:59:09.620Z,12.57
2022-10-23T15:01:43.748Z,14.90
2022-10-23T15:04:17.241Z,26.92
2022-10-23T15:06:47.172Z,20.73
2022-10-23T15:09:15.028Z,13.57
2022-10-23T15:11:42.852Z,13.50
2022-10-23T15:14:12.268Z,12.80
2022-10-23T15:16:43.182Z,10.75
2022-10-23T15:19:15.459Z,11.63
2022-10-23T15:21:47.175Z,11.52
2022-10-23T15:24:18.485Z,14.75
2022-10-23T15:26:46.500Z,14.93
2022-10-23T15:29:15.048Z,15.52
2022-10-23T15:31:45.889Z,16.17
2022-10-23T15:34:19.882Z,13.80
2022-10-23T15:36:48.878Z,15.15
2022-10-23T15:39:22.265Z,15.67
2022-10-23T15:41:53.634Z,60.65
2022-10-23T15:44:25.245Z,93.18
2022-10-23T15:46:57.369Z,40.42
2022-10-23T15:49:26.838Z,27.55
2022-10-23T15:51:55.883Z,21.83
2022-10-23T15:54:28.044Z,21.65
2022-10-23T15:56:59.207Z,25.88
2022-10-23T15:59:27.644Z,21.65
2022-10-23T16:01:55.916Z,18.30
2022-10-23T16:04:24.942Z,20.83
2022-10-23T16:06:52.619Z,17.80
2022-10-23T16:09:20.437Z,21.75
2022-10-23T16:11:49.211Z,22.30
2022-10-23T16:14:17.981Z,23.70
2022-10-23T16:16:45.826Z,31.80
2022-10-23T16:19:17.751Z,25.80
2022-10-23T16:21:45.564Z,24.20
2022-10-23T16:24:13.049Z,26.62
2022-10-23T16:26:41.215Z,27.80
2022-10-23T16:29:10.017Z,26.13
2022-10-23T16:31:38.927Z,27.85
2022-10-23T16:34:07.572Z,28.80
2022-10-23T16:36:39.140Z,26.45
2022-10-23T16:39:09.882Z,25.67
2022-10-23T16:41:37.265Z,24.57
2022-10-23T16:44:06.820Z,21.67
2022-10-23T16:46:36.078Z,23.65
2022-10-23T16:49:04.243Z,26.00
2022-10-23T16:51:32.439Z,27.25
2022-10-23T16:54:01.916Z,30.70
2022-10-23T16:56:31.358Z,65.25
2022-10-23T16:59:00.553Z,101.90
2022-10-23T17:01:32.017Z,58.60
2022-10-23T17:04:00.922Z,59.17
2022-10-23T17:06:32.551Z,112.47
2022-10-23T17:09:02.133Z,113.37
2022-10-23T17:11:36.081Z,75.93
2022-10-23T17:14:29.848Z,56.63
2022-10-23T17:17:01.851Z,68.18
2022-10-23T17:19:47.221Z,69.63
2022-10-23T17:22:16.432Z,72.60
2022-10-23T17:24:47.459Z,80.25
2022-10-23T17:27:19.538Z,77.57
2022-10-23T17:29:48.037Z,96.95
2022-10-23T17:32:17.671Z,100.23
2022-10-23T17:34:46.754Z,81.12
2022-10-23T17:37:15.714Z,81.63
2022-10-23T17:39:44.011Z,86.97
2022-10-23T17:42:13.458Z,83.97
2022-10-23T17:44:41.456Z,77.27
2022-10-23T17:47:09.482Z,78.37
2022-10-23T17:49:40.635Z,75.78
2022-10-23T17:52:14.744Z,77.07
2022-10-23T17:54:42.771Z,75.28
2022-10-23T17:57:18.051Z,70.43
2022-10-23T17:59:46.364Z,67.10
2022-10-23T18:02:14.909Z,72.20
2022-10-23T18:04:46.319Z,68.43
2022-10-23T18:07:16.027Z,59.00
2022-10-23T18:09:45.563Z,69.67
2022-10-23T18:12:14.105Z,68.50
2022-10-23T18:14:43.371Z,60.63
2022-10-23T18:17:11.833Z,52.08
2022-10-23T18:19:40.507Z,59.53
2022-10-23T18:22:09.415Z,46.63
2022-10-23T18:24:39.604Z,46.50
2022-10-23T18:27:08.010Z,33.03
2022-10-23T18:29:36.335Z,26.85
2022-10-23T18:32:05.275Z,28.05
2022-10-23T18:34:33.938Z,23.63
2022-10-23T18:37:03.136Z,24.02
2022-10-23T18:39:34.753Z,17.15
2022-10-23T18:42:02.977Z,15.95
2022-10-23T18:44:30.948Z,18.52
2022-10-23T18:47:00.253Z,19.43
2022-10-23T18:49:29.459Z,20.08
2022-10-23T18:51:58.822Z,18.20
2022-10-23T18:54:26.915Z,19.52
2022-10-23T18:56:56.062Z,17.02
2022-10-23T18:59:24.895Z,18.83
2022-10-23T19:01:55.133Z,19.70
2022-10-23T19:04:24.440Z,17.73
2022-10-23T19:06:53.382Z,58.53
2022-10-23T19:09:22.555Z,20.05
2022-10-23T19:11:50.537Z,12.00
2022-10-23T19:14:19.522Z,8.32
2022-10-23T19:16:54.674Z,11.20
2022-10-23T19:19:27.031Z,9.18
2022-10-23T19:21:55.787Z,8.23
2022-10-23T19:24:32.442Z,9.00
2022-10-23T19:27:01.852Z,10.02
2022-10-23T19:29:31.469Z,8.95
2022-10-23T19:32:00.785Z,10.60
2022-10-23T19:34:29.655Z,10.23
2022-10-23T19:36:58.036Z,8.57
2022-10-23T19:39:27.157Z,8.85
2022-10-23T19:41:58.550Z,8.60
2022-10-23T19:44:26.953Z,9.45
2022-10-23T19:46:55.083Z,13.70
2022-10-23T19:49:24.325Z,9.10
2022-10-23T19:51:53.423Z,9.32
2022-10-23T19:54:22.312Z,9.10
2022-10-23T19:56:53.488Z,10.55
2022-10-23T19:59:21.914Z,9.40
2022-10-23T20:01:50.550Z,11.07
2022-10-23T20:04:19.135Z,8.75
2022-10-23T20:06:47.999Z,9.73
2022-10-23T20:09:16.286Z,10.55
2022-10-23T20:11:45.630Z,11.57
2022-10-23T20:14:13.767Z,9.87
2022-10-23T20:16:45.295Z,11.90
2022-10-23T20:21:49.815Z,22.13
2022-10-23T20:24:19.888Z,9.73
2022-10-23T20:26:50.535Z,8.50
2022-10-23T20:29:18.807Z,8.80
2022-10-23T20:31:46.570Z,8.73
2022-10-23T20:34:14.869Z,10.93
2022-10-23T20:36:46.753Z,16.45
2022-10-23T20:39:26.042Z,12.37
2022-10-23T20:41:55.869Z,17.40
2022-10-23T20:44:24.257Z,14.48
2022-10-23T20:46:55.276Z,14.07
2022-10-23T20:49:23.789Z,8.35
2022-10-23T20:51:56.194Z,10.40
2022-10-23T20:54:25.598Z,10.43
2022-10-23T20:56:52.828Z,10.18
2022-10-23T20:59:19.825Z,10.32
2022-10-23T21:01:53.440Z,13.32
2022-10-23T21:04:24.443Z,15.90
2022-10-23T21:07:10.300Z,14.80
2022-10-23T21:09:40.650Z,15.55
2022-10-23T21:12:08.394Z,13.25
2022-10-23T21:14:35.862Z,13.55
2022-10-23T21:17:03.075Z,12.93
2022-10-23T21:19:29.810Z,11.82
2022-10-23T21:21:56.741Z,14.38
2022-10-23T21:24:24.653Z,11.80
2022-10-23T21:26:51.619Z,11.20
2022-10-23T21:29:19.819Z,12.50
2022-10-23T21:31:59.385Z,11.57
2022-10-23T21:34:27.171Z,11.77
2022-10-23T21:37:12.050Z,11.68
2022-10-23T21:39:40.679Z,9.55
2022-10-23T21:42:07.890Z,11.90
2022-10-23T21:44:34.735Z,8.55
2022-10-23T21:47:01.930Z,11.02
2022-10-23T21:49:29.026Z,9.95
2022-10-23T21:51:55.896Z,11.15
2022-10-23T21:54:22.808Z,8.97
2022-10-23T21:56:51.359Z,11.48
2022-10-23T21:59:20.885Z,11.45
2022-10-23T22:01:48.933Z,9.55
2022-10-23T22:04:17.483Z,8.52
2022-10-23T22:06:46.298Z,9.70
2022-10-23T22:09:15.541Z,9.07
2022-10-23T22:11:43.091Z,9.00
2022-10-23T22:14:10.024Z,9.85
2022-10-23T22:16:37.319Z,9.70
2022-10-23T22:19:04.511Z,11.77
2022-10-23T22:21:31.702Z,13.02
2022-10-23T22:24:00.330Z,12.30
2022-10-23T22:26:49.311Z,9.68
2022-10-23T22:29:23.514Z,8.73
2022-10-23T22:31:50.850Z,9.90
2022-10-23T22:34:28.735Z,13.70
2022-10-23T22:37:10.966Z,12.45
2022-10-23T22:39:38.468Z,10.68
2022-10-23T22:42:05.402Z,10.88
2022-10-23T22:44:32.143Z,12.20
2022-10-23T22:46:59.036Z,14.98
2022-10-23T22:49:25.970Z,12.85
2022-10-23T22:51:52.897Z,12.68
2022-10-23T22:54:19.682Z,12.25
2022-10-23T22:56:46.498Z,12.07
2022-10-23T22:59:13.222Z,14.90
2022-10-23T23:01:43.846Z,13.40
2022-10-23T23:07:10.029Z,12.75
2022-10-23T23:09:41.956Z,11.33
2022-10-23T23:12:11.128Z,11.27
2022-10-23T23:14:38.292Z,12.57
2022-10-23T23:17:07.018Z,12.23
2022-10-23T23:19:34.298Z,12.07
2022-10-23T23:22:01.389Z,11.40
2022-10-23T23:24:28.256Z,11.93
2022-10-23T23:26:55.083Z,12.10
2022-10-23T23:29:22.083Z,11.35
2022-10-23T23:31:51.240Z,13.35
2022-10-23T23:34:18.081Z,13.13
2022-10-23T23:36:45.022Z,13.43
2022-10-23T23:39:11.902Z,14.30
2022-10-23T23:41:38.646Z,11.60
2022-10-23T23:44:05.740Z,12.77
2022-10-23T23:46:32.514Z,14.17
2022-10-23T23:48:59.385Z,11.88
2022-10-23T23:51:26.312Z,12.02
2022-10-23T23:53:53.619Z,13.55
2022-10-23T23:56:20.883Z,14.10
2022-10-23T23:58:47.819Z,13.67
